Time;durP1;ratioP1;P1;durP2;ratioP2;P2;SDS_P1;SDS_P2;PMS_P1;PMS_P2;Temp;Humidity;BMP_temperature;BMP_pressure;BME280_temperature;BME280_humidity;BME280_pressure;Samples;Min_cycle;Max_cycle;Signal;HPM_P1;HPM_P2
2023/10/17 00:00:28;;;;;;;7.40;4.70;;;7.10;99.90;;;;;;4225109;28;20204;-76
2023/10/17 00:02:32;;;;;;;6.43;4.30;;;7.10;99.90;;;;;;4225259;28;20306;-76
2023/10/17 00:04:34;;;;;;;7.37;4.60;;;7.10;99.90;;;;;;4228121;28;20474;-76
2023/10/17 00:06:37;;;;;;;6.00;4.03;;;7.10;99.90;;;;;;4222751;28;20231;-76
2023/10/17 00:08:39;;;;;;;5.37;3.70;;;7.00;99.90;;;;;;4220067;28;20439;-76
2023/10/17 00:10:45;;;;;;;6.10;3.97;;;7.00;99.90;;;;;;4223661;28;20720;-76
2023/10/17 00:12:51;;;;;;;8.87;4.70;;;7.00;99.90;;;;;;4224569;28;20530;-76
2023/10/17 00:14:58;;;;;;;5.20;3.33;;;6.90;99.90;;;;;;4223770;27;20474;-76
2023/10/17 00:16:59;;;;;;;7.37;4.07;;;6.90;99.90;;;;;;4223297;28;20223;-76
2023/10/17 00:19:08;;;;;;;7.30;4.27;;;6.90;99.90;;;;;;4226212;27;21069;-76
2023/10/17 00:21:20;;;;;;;9.13;4.80;;;6.90;99.90;;;;;;4220115;28;20549;-76
2023/10/17 00:23:24;;;;;;;6.83;4.17;;;6.80;99.90;;;;;;4219917;28;20848;-76
2023/10/17 00:25:27;;;;;;;8.00;4.13;;;6.80;99.90;;;;;;4226863;27;20575;-76
2023/10/17 00:27:30;;;;;;;6.13;4.07;;;6.90;99.90;;;;;;4222388;28;20885;-76
2023/10/17 00:29:33;;;;;;;6.83;4.27;;;6.70;99.90;;;;;;4221940;28;20200;-76
2023/10/17 00:31:35;;;;;;;5.93;3.70;;;6.80;99.90;;;;;;4221434;27;20466;-75
2023/10/17 00:33:41;;;;;;;5.07;3.43;;;6.70;99.90;;;;;;4223100;28;20477;-76
2023/10/17 00:35:48;;;;;;;7.77;4.13;;;6.70;99.90;;;;;;4226373;28;21279;-76
2023/10/17 00:37:54;;;;;;;5.27;3.63;;;6.60;99.90;;;;;;4221639;28;20478;-76
2023/10/17 00:39:56;;;;;;;7.37;3.47;;;6.60;99.90;;;;;;4220964;28;20921;-76
2023/10/17 00:44:27;;;;;;;6.23;3.63;;;6.60;99.90;;;;;;4225001;28;20529;-76
2023/10/17 00:46:29;;;;;;;5.53;4.00;;;6.60;99.90;;;;;;4223005;28;20200;-76
2023/10/17 00:48:34;;;;;;;5.63;3.83;;;6.50;99.90;;;;;;4231126;27;20445;-76
2023/10/17 00:50:37;;;;;;;6.83;4.03;;;6.50;99.90;;;;;;4225430;28;20944;-76
2023/10/17 00:52:40;;;;;;;6.40;4.27;;;6.50;99.90;;;;;;4225254;28;20462;-76
2023/10/17 00:54:42;;;;;;;5.87;4.00;;;6.50;99.90;;;;;;4226809;28;21134;-76
2023/10/17 00:56:45;;;;;;;7.50;4.07;;;6.50;99.90;;;;;;4224258;28;20502;-76
2023/10/17 00:58:47;;;;;;;10.77;4.90;;;6.40;99.90;;;;;;4226910;28;20453;-76
2023/10/17 01:00:58;;;;;;;6.80;4.40;;;6.40;99.90;;;;;;4222271;28;20465;-77
2023/10/17 01:03:02;;;;;;;7.17;4.37;;;6.40;99.90;;;;;;4225772;28;20477;-76
2023/10/17 01:05:11;;;;;;;5.30;3.80;;;6.40;99.90;;;;;;4222975;28;20456;-76
2023/10/17 01:07:23;;;;;;;7.93;4.13;;;6.30;99.90;;;;;;4225543;28;20456;-76
2023/10/17 01:09:27;;;;;;;5.80;3.70;;;6.30;99.90;;;;;;4228209;28;20436;-76
2023/10/17 01:11:30;;;;;;;7.23;3.90;;;6.30;99.90;;;;;;4223787;28;20585;-76
2023/10/17 01:13:31;;;;;;;5.80;3.53;;;6.20;99.90;;;;;;4225363;28;20735;-76
2023/10/17 01:15:36;;;;;;;6.63;4.00;;;6.20;99.90;;;;;;4225701;28;20508;-76
2023/10/17 01:17:41;;;;;;;5.30;3.53;;;6.20;99.90;;;;;;4230452;27;20461;-76
2023/10/17 01:19:43;;;;;;;6.87;3.87;;;6.20;99.90;;;;;;4228296;27;20936;-76
2023/10/17 01:21:45;;;;;;;8.70;3.97;;;6.10;99.90;;;;;;4232240;27;20491;-76
2023/10/17 01:23:47;;;;;;;7.17;3.90;;;6.10;99.90;;;;;;4226676;28;20853;-76
2023/10/17 01:25:52;;;;;;;6.67;4.00;;;6.10;99.90;;;;;;4229663;27;20683;-76
2023/10/17 01:27:55;;;;;;;6.57;4.13;;;6.10;99.90;;;;;;4227420;28;20527;-76
2023/10/17 01:29:59;;;;;;;6.57;3.83;;;6.10;99.90;;;;;;4227405;28;20465;-76
2023/10/17 01:32:02;;;;;;;7.17;4.30;;;6.00;99.90;;;;;;4229403;27;20480;-77
2023/10/17 01:34:08;;;;;;;6.47;3.80;;;6.00;99.90;;;;;;4225002;28;20523;-76
2023/10/17 01:36:10;;;;;;;8.07;4.00;;;6.00;99.90;;;;;;4224926;28;20555;-76
2023/10/17 01:38:13;;;;;;;6.73;4.20;;;6.00;99.90;;;;;;4227479;27;20455;-76
2023/10/17 01:40:22;;;;;;;8.90;5.07;;;5.90;99.90;;;;;;4229011;28;20983;-76
2023/10/17 01:42:25;;;;;;;6.07;4.00;;;5.90;99.90;;;;;;4225873;27;20499;-76
2023/10/17 01:44:28;;;;;;;6.47;4.23;;;5.90;99.90;;;;;;4226536;28;20453;-76
2023/10/17 01:46:31;;;;;;;7.50;4.27;;;5.90;99.90;;;;;;4225525;27;20467;-76
2023/10/17 01:48:33;;;;;;;7.10;4.50;;;5.80;99.90;;;;;;4226967;28;20892;-76
2023/10/17 01:50:35;;;;;;;7.07;4.00;;;5.80;99.90;;;;;;4224623;28;20449;-76
2023/10/17 01:52:42;;;;;;;6.20;4.07;;;5.80;99.90;;;;;;4227663;28;20475;-76
2023/10/17 01:54:47;;;;;;;7.80;4.30;;;5.80;99.90;;;;;;4224497;28;21082;-76
2023/10/17 01:56:50;;;;;;;6.70;4.10;;;5.70;99.90;;;;;;4223057;28;20467;-76
2023/10/17 01:58:55;;;;;;;6.77;3.90;;;5.70;99.90;;;;;;4222809;28;20445;-76
2023/10/17 02:00:57;;;;;;;7.60;4.67;;;5.70;99.90;;;;;;4226872;28;20449;-76
2023/10/17 02:02:59;;;;;;;6.40;4.00;;;5.60;99.90;;;;;;4226373;28;20453;-76
2023/10/17 02:05:02;;;;;;;7.20;3.90;;;5.60;99.90;;;;;;4226345;27;20448;-76
2023/10/17 02:07:04;;;;;;;6.13;4.20;;;5.60;99.90;;;;;;4223698;27;21447;-76
2023/10/17 02:09:19;;;;;;;6.20;4.07;;;5.60;99.90;;;;;;4229649;27;20477;-76
2023/10/17 02:11:27;;;;;;;8.03;4.73;;;5.50;99.90;;;;;;4228743;28;20472;-78
2023/10/17 02:13:30;;;;;;;6.67;4.10;;;5.50;99.90;;;;;;4234138;27;20460;-78
2023/10/17 02:15:34;;;;;;;7.63;4.40;;;5.50;99.90;;;;;;4232953;28;20476;-78
2023/10/17 02:17:36;;;;;;;5.50;3.93;;;5.50;99.90;;;;;;4235993;28;20477;-78
2023/10/17 02:19:39;;;;;;;5.63;4.27;;;5.50;99.90;;;;;;4238719;28;20489;-78
2023/10/17 02:21:43;;;;;;;7.93;4.47;;;5.40;99.90;;;;;;4233316;27;20553;-78
2023/10/17 02:23:49;;;;;;;9.93;4.77;;;5.40;99.90;;;;;;4236582;28;20455;-78
2023/10/17 02:25:52;;;;;;;5.93;4.20;;;5.40;99.90;;;;;;4237272;27;20871;-78
2023/10/17 02:27:54;;;;;;;6.97;4.70;;;5.40;99.90;;;;;;4234727;27;20476;-77
2023/10/17 02:29:58;;;;;;;7.07;4.80;;;5.40;99.90;;;;;;4235483;28;20456;-78
2023/10/17 02:32:01;;;;;;;7.17;4.50;;;5.30;99.90;;;;;;4235306;28;20559;-78
2023/10/17 02:34:09;;;;;;;7.20;4.60;;;5.30;99.90;;;;;;4227410;28;20452;-77
2023/10/17 02:36:13;;;;;;;7.80;5.10;;;5.30;99.90;;;;;;4230989;28;20483;-78
2023/10/17 02:38:15;;;;;;;7.63;5.03;;;5.30;99.90;;;;;;4228063;28;20512;-78
2023/10/17 02:40:20;;;;;;;11.13;6.00;;;5.30;99.90;;;;;;4230511;28;20448;-78
2023/10/17 02:42:22;;;;;;;8.73;5.37;;;5.30;99.90;;;;;;4227564;28;21066;-78
2023/10/17 02:44:24;;;;;;;8.63;5.57;;;5.30;99.90;;;;;;4228804;27;20456;-78
2023/10/17 02:46:29;;;;;;;9.17;4.70;;;5.30;99.90;;;;;;4223959;28;20488;-78
2023/10/17 02:48:38;;;;;;;9.20;5.70;;;5.30;99.90;;;;;;4224048;27;20504;-77
2023/10/17 02:50:43;;;;;;;9.03;5.43;;;5.20;99.90;;;;;;4223948;28;20449;-76
2023/10/17 02:52:47;;;;;;;9.63;5.73;;;5.30;99.90;;;;;;4225769;28;20446;-76
2023/10/17 02:54:59;;;;;;;11.63;5.57;;;5.20;99.90;;;;;;4225666;28;20584;-76
2023/10/17 02:57:00;;;;;;;7.33;5.10;;;5.20;99.90;;;;;;4227613;28;20471;-76
2023/10/17 02:59:06;;;;;;;9.67;5.13;;;5.20;99.90;;;;;;4226311;27;20787;-76
2023/10/17 03:01:08;;;;;;;9.77;5.27;;;5.20;99.90;;;;;;4224357;28;20252;-76
2023/10/17 03:03:12;;;;;;;8.57;5.27;;;5.20;99.90;;;;;;4228439;28;20501;-77
2023/10/17 03:05:16;;;;;;;8.23;4.90;;;5.20;99.90;;;;;;4225058;28;20435;-78
2023/10/17 03:07:18;;;;;;;8.70;5.13;;;5.20;99.90;;;;;;4227134;27;21014;-77
2023/10/17 03:09:36;;;;;;;7.57;4.90;;;5.10;99.90;;;;;;4224117;28;20509;-80
2023/10/17 03:11:47;;;;;;;10.17;5.20;;;5.10;99.90;;;;;;4228843;27;20895;-77
2023/10/17 03:13:49;;;;;;;10.73;5.80;;;5.10;99.90;;;;;;4228144;27;20443;-76
2023/10/17 03:15:54;;;;;;;7.17;5.10;;;5.10;99.90;;;;;;4226501;27;20529;-77
2023/10/17 03:18:00;;;;;;;8.33;5.37;;;5.10;99.90;;;;;;4229370;27;21343;-77
2023/10/17 03:20:01;;;;;;;8.40;5.03;;;5.10;99.90;;;;;;4227582;27;20543;-77
2023/10/17 03:22:19;;;;;;;9.63;5.30;;;5.50;99.90;;;;;;4227105;27;20472;-76
2023/10/17 03:24:28;;;;;;;9.13;5.53;;;5.00;99.90;;;;;;4230433;27;20866;-78
2023/10/17 03:26:39;;;;;;;9.93;5.53;;;5.00;99.90;;;;;;4228979;27;20441;-77
2023/10/17 03:28:40;;;;;;;12.47;5.60;;;5.00;99.90;;;;;;4226711;28;20480;-76
2023/10/17 03:30:42;;;;;;;10.20;5.40;;;5.00;99.90;;;;;;4223119;27;20450;-76
2023/10/17 03:32:53;;;;;;;8.57;5.20;;;4.90;99.90;;;;;;4224197;28;20511;-76
2023/10/17 03:34:57;;;;;;;8.67;5.33;;;5.00;99.90;;;;;;4222997;27;20484;-77
2023/10/17 03:37:07;;;;;;;11.50;6.43;;;4.90;99.90;;;;;;4226438;28;21633;-77
2023/10/17 03:39:21;;;;;;;10.60;5.67;;;4.90;99.90;;;;;;4225686;28;20450;-76
2023/10/17 03:41:24;;;;;;;11.80;6.50;;;4.80;99.90;;;;;;4225089;27;20484;-77
2023/10/17 03:43:28;;;;;;;14.23;6.93;;;4.90;99.90;;;;;;4224837;28;20440;-76
2023/10/17 03:45:43;;;;;;;11.73;5.90;;;4.90;99.90;;;;;;4225254;28;20480;-76
2023/10/17 03:47:53;;;;;;;9.53;5.80;;;4.90;99.90;;;;;;4227965;27;21925;-78
2023/10/17 03:49:56;;;;;;;12.73;5.47;;;4.80;99.90;;;;;;4242447;27;21039;-76
2023/10/17 03:52:03;;;;;;;10.83;5.80;;;4.80;99.90;;;;;;4229109;27;20473;-78
2023/10/17 03:54:07;;;;;;;9.10;5.17;;;4.80;99.90;;;;;;4231508;27;20544;-77
2023/10/17 03:56:11;;;;;;;10.00;5.77;;;4.80;99.90;;;;;;4230371;27;20488;-78
2023/10/17 03:58:25;;;;;;;9.20;5.70;;;4.80;99.90;;;;;;4224587;27;20947;-78
2023/10/17 04:00:34;;;;;;;13.70;7.03;;;4.70;99.90;;;;;;4228103;27;20461;-77
2023/10/17 04:02:36;;;;;;;9.63;5.57;;;4.70;99.90;;;;;;4226750;27;20479;-76
2023/10/17 04:04:46;;;;;;;10.17;5.53;;;4.70;99.90;;;;;;4228511;27;20494;-75
2023/10/17 04:06:51;;;;;;;13.13;6.53;;;4.70;99.90;;;;;;4227149;27;20446;-80
2023/10/17 04:08:59;;;;;;;10.20;5.67;;;4.70;99.90;;;;;;4226084;27;20453;-76
2023/10/17 04:11:17;;;;;;;9.50;5.43;;;4.70;99.90;;;;;;4228080;27;20887;-78
2023/10/17 04:13:24;;;;;;;10.47;5.90;;;4.70;99.90;;;;;;4227145;27;20448;-78
2023/10/17 04:15:27;;;;;;;11.73;6.00;;;4.60;99.90;;;;;;4224437;27;21050;-77
2023/10/17 04:17:31;;;;;;;10.07;5.33;;;4.60;99.90;;;;;;4221824;28;20906;-77
2023/10/17 04:19:33;;;;;;;12.37;6.00;;;4.60;99.90;;;;;;4218179;27;21108;-78
2023/10/17 04:21:45;;;;;;;10.20;5.47;;;4.60;99.90;;;;;;4226121;27;20484;-78
2023/10/17 04:23:50;;;;;;;9.37;5.37;;;4.60;99.90;;;;;;4226151;27;20480;-77
2023/10/17 04:25:54;;;;;;;10.83;5.00;;;4.60;99.90;;;;;;4225828;28;20440;-77
2023/10/17 04:27:59;;;;;;;9.60;5.57;;;4.50;99.90;;;;;;4222534;27;20940;-77
2023/10/17 04:30:14;;;;;;;9.77;4.83;;;4.50;99.90;;;;;;4227204;27;20959;-77
2023/10/17 04:32:17;;;;;;;7.50;4.67;;;4.50;99.90;;;;;;4222054;28;20501;-77
2023/10/17 04:34:21;;;;;;;8.53;5.63;;;4.50;99.90;;;;;;4227058;28;20448;-77
2023/10/17 04:36:25;;;;;;;10.20;5.70;;;4.40;99.90;;;;;;4225183;27;21015;-77
2023/10/17 04:38:36;;;;;;;9.40;4.90;;;4.40;99.90;;;;;;4228042;27;20508;-78
2023/10/17 04:40:42;;;;;;;9.17;5.17;;;4.40;99.90;;;;;;4222441;27;20873;-80
2023/10/17 04:43:30;;;;;;;11.53;5.70;;;4.40;99.90;;;;;;4226506;27;20907;-80
2023/10/17 04:45:20;;;;;;;10.43;5.20;;;4.40;99.90;;;;;;4230091;28;20810;-80
2023/10/17 04:47:31;;;;;;;10.63;5.13;;;4.30;99.90;;;;;;4227538;28;20465;-80
2023/10/17 04:49:35;;;;;;;12.50;5.87;;;4.30;99.90;;;;;;4230289;28;20442;-80
2023/10/17 04:51:42;;;;;;;12.00;6.50;;;4.30;99.90;;;;;;4225342;28;20464;-80
2023/10/17 04:53:48;;;;;;;11.90;6.33;;;4.30;99.90;;;;;;4224239;27;20614;-80
2023/10/17 04:58:30;;;;;;;14.23;7.13;;;4.30;99.90;;;;;;4225939;28;20472;-79
2023/10/17 05:00:52;;;;;;;11.47;6.80;;;4.30;99.90;;;;;;4228955;27;21149;-80
2023/10/17 05:03:06;;;;;;;13.90;6.63;;;4.50;99.90;;;;;;4229716;28;21472;-80
2023/10/17 05:07:30;;;;;;;13.33;7.37;;;4.30;99.90;;;;;;4225885;27;20900;-80
2023/10/17 06:17:34;;;;;;;9.90;5.60;;;3.90;99.90;;;;;;4236287;27;20520;-80
2023/10/17 06:19:36;;;;;;;10.57;6.20;;;3.90;99.90;;;;;;4233705;27;20491;-81
2023/10/17 06:21:51;;;;;;;10.00;6.23;;;3.90;99.90;;;;;;4231022;27;20459;-81
2023/10/17 06:28:46;;;;;;;10.40;5.83;;;3.90;99.90;;;;;;4231093;28;20455;-78
2023/10/17 06:30:48;;;;;;;10.37;6.30;;;3.90;99.90;;;;;;4230967;27;20442;-79
2023/10/17 06:33:02;;;;;;;10.50;5.67;;;4.30;99.90;;;;;;4224528;28;20936;-78
2023/10/17 06:35:20;;;;;;;12.00;6.23;;;3.90;99.90;;;;;;4227044;27;20541;-78
2023/10/17 06:37:30;;;;;;;9.90;5.20;;;4.00;99.90;;;;;;4235995;28;20442;-78
2023/10/17 06:39:36;;;;;;;11.53;6.03;;;4.00;99.90;;;;;;4235340;28;20446;-78
2023/10/17 06:41:39;;;;;;;10.43;6.30;;;4.10;99.90;;;;;;4237246;27;20454;-79
2023/10/17 06:43:46;;;;;;;10.17;5.97;;;4.00;99.90;;;;;;4234731;27;20454;-78
2023/10/17 06:45:54;;;;;;;10.93;5.20;;;4.30;99.90;;;;;;4236702;28;20534;-78
2023/10/17 06:47:58;;;;;;;10.27;5.17;;;4.10;99.90;;;;;;4233213;27;20442;-78
2023/10/17 06:50:17;;;;;;;9.00;5.37;;;4.10;99.90;;;;;;4239281;27;21251;-78
2023/10/17 06:52:19;;;;;;;8.97;5.73;;;4.10;99.90;;;;;;4235146;28;20469;-79
2023/10/17 06:54:25;;;;;;;9.33;5.33;;;4.20;99.90;;;;;;4236811;27;20458;-78
2023/10/17 06:56:31;;;;;;;9.17;5.30;;;4.20;99.90;;;;;;4234330;27;20481;-79
2023/10/17 06:58:34;;;;;;;8.20;5.37;;;4.20;99.90;;;;;;4228840;27;20463;-78
2023/10/17 07:00:43;;;;;;;8.17;5.57;;;4.30;99.90;;;;;;4222044;28;20477;-79
2023/10/17 07:02:48;;;;;;;10.93;5.60;;;4.30;99.90;;;;;;4229984;27;20527;-79
2023/10/17 07:04:50;;;;;;;10.73;5.60;;;4.40;99.90;;;;;;4228557;27;20459;-78
2023/10/17 07:06:53;;;;;;;15.13;6.00;;;4.40;99.90;;;;;;4229070;27;20544;-78
2023/10/17 07:08:55;;;;;;;14.63;6.93;;;4.50;99.90;;;;;;4231415;27;20802;-80
2023/10/17 07:11:05;;;;;;;11.47;6.67;;;4.60;99.90;;;;;;4233792;27;20924;-78
2023/10/17 07:13:54;;;;;;;10.57;6.13;;;4.70;99.90;;;;;;4236970;27;20435;-79
2023/10/17 07:15:56;;;;;;;11.67;5.90;;;4.70;99.90;;;;;;4233419;27;20514;-79
2023/10/17 07:21:08;;;;;;;9.93;5.87;;;4.80;99.90;;;;;;4230635;28;20916;-79
2023/10/17 07:22:41;;;;;;;9.53;5.70;;;4.90;99.90;;;;;;4226659;28;20488;-80
2023/10/17 07:24:48;;;;;;;10.17;6.20;;;4.90;99.90;;;;;;4230667;27;20517;-80
2023/10/17 07:26:53;;;;;;;13.10;6.80;;;5.00;99.90;;;;;;4230993;27;20535;-79
2023/10/17 07:28:56;;;;;;;12.07;6.33;;;5.00;99.90;;;;;;4229258;27;20459;-80
2023/10/17 07:31:00;;;;;;;13.57;7.07;;;5.00;99.90;;;;;;4231581;28;20455;-80
2023/10/17 07:33:07;;;;;;;12.77;6.93;;;5.10;99.90;;;;;;4228989;27;20444;-80
2023/10/17 07:35:08;;;;;;;10.47;6.37;;;5.20;99.90;;;;;;4233174;27;20982;-80
2023/10/17 07:37:22;;;;;;;11.50;6.50;;;5.20;99.90;;;;;;4227891;27;20485;-80
2023/10/17 07:39:29;;;;;;;14.03;6.13;;;5.20;99.90;;;;;;4226264;28;20529;-80
2023/10/17 07:41:36;;;;;;;9.33;6.20;;;5.20;99.90;;;;;;4231157;27;20465;-81
2023/10/17 07:43:43;;;;;;;9.67;5.50;;;5.30;99.90;;;;;;4232008;27;20444;-80
2023/10/17 07:45:55;;;;;;;9.07;5.37;;;5.30;99.90;;;;;;4226604;27;20557;-80
2023/10/17 07:48:01;;;;;;;9.63;5.70;;;5.40;99.90;;;;;;4227991;28;20473;-80
2023/10/17 07:50:12;;;;;;;9.73;6.00;;;5.40;99.90;;;;;;4230163;28;20470;-79
2023/10/17 07:52:15;;;;;;;10.33;6.20;;;5.40;99.90;;;;;;4227661;28;20865;-81
2023/10/17 07:54:16;;;;;;;9.57;5.37;;;5.50;99.90;;;;;;4227319;28;20453;-81
2023/10/17 07:56:21;;;;;;;9.07;5.67;;;5.50;99.90;;;;;;4230094;27;20489;-80
2023/10/17 07:58:39;;;;;;;13.23;5.83;;;5.50;99.90;;;;;;4232919;27;20452;-79
2023/10/17 08:00:48;;;;;;;11.53;6.10;;;5.50;99.90;;;;;;4231070;28;20524;-80
2023/10/17 08:02:51;;;;;;;11.30;5.17;;;5.90;99.90;;;;;;4225449;27;20434;-80
2023/10/17 08:04:54;;;;;;;10.63;5.17;;;5.60;99.90;;;;;;4226800;27;20472;-81
2023/10/17 08:06:56;;;;;;;10.47;5.90;;;5.60;99.90;;;;;;4231154;27;20458;-81
2023/10/17 08:09:00;;;;;;;9.57;5.83;;;5.70;99.90;;;;;;4226624;27;21003;-81
2023/10/17 08:11:05;;;;;;;9.87;5.37;;;5.70;99.90;;;;;;4230501;27;20448;-80
2023/10/17 08:13:08;;;;;;;8.80;5.00;;;5.70;99.90;;;;;;4226721;28;20449;-80
2023/10/17 08:15:19;;;;;;;7.23;4.83;;;5.80;99.90;;;;;;4232345;28;20448;-81
2023/10/17 08:17:22;;;;;;;9.33;5.10;;;5.80;99.90;;;;;;4231363;27;20480;-81
2023/10/17 08:19:29;;;;;;;7.90;4.40;;;5.80;99.90;;;;;;4226476;28;20493;-80
2023/10/17 08:21:40;;;;;;;10.20;5.20;;;5.80;99.90;;;;;;4230456;27;21013;-80
2023/10/17 08:23:42;;;;;;;8.73;4.67;;;5.90;99.90;;;;;;4227759;28;20460;-80
2023/10/17 08:25:52;;;;;;;10.47;5.00;;;5.90;99.90;;;;;;4233364;28;20446;-79
2023/10/17 08:27:56;;;;;;;9.70;4.60;;;5.90;99.90;;;;;;4233202;28;20449;-80
2023/10/17 08:30:00;;;;;;;9.50;4.83;;;6.00;99.90;;;;;;4233548;27;20433;-80
2023/10/17 08:32:14;;;;;;;6.57;4.30;;;6.00;99.90;;;;;;4231343;27;20835;-80
2023/10/17 08:34:18;;;;;;;7.37;4.63;;;6.10;99.90;;;;;;4234279;28;20442;-79
2023/10/17 08:36:23;;;;;;;7.30;3.70;;;6.10;99.90;;;;;;4232814;28;20480;-79
2023/10/17 08:38:24;;;;;;;7.00;3.90;;;6.10;99.90;;;;;;4234884;28;20446;-81
2023/10/17 08:40:32;;;;;;;7.53;4.20;;;6.20;99.90;;;;;;4226369;28;20443;-80
2023/10/17 08:42:38;;;;;;;5.93;4.30;;;6.30;99.90;;;;;;4227350;28;20228;-79
2023/10/17 08:44:46;;;;;;;8.27;4.60;;;6.30;99.90;;;;;;4224020;28;20482;-79
2023/10/17 08:46:50;;;;;;;11.53;5.40;;;6.40;99.90;;;;;;4226416;28;21282;-80
2023/10/17 08:48:56;;;;;;;7.60;4.70;;;6.40;99.90;;;;;;4226396;27;20438;-81
2023/10/17 08:50:59;;;;;;;8.83;4.70;;;6.50;99.90;;;;;;4226098;28;20514;-81
2023/10/17 08:53:06;;;;;;;9.60;4.50;;;6.50;99.90;;;;;;4226429;27;20454;-81
2023/10/17 08:55:09;;;;;;;10.27;4.57;;;6.60;99.90;;;;;;4228288;27;20219;-81
2023/10/17 08:57:12;;;;;;;8.03;4.73;;;6.70;99.90;;;;;;4224339;28;20493;-81
2023/10/17 08:59:15;;;;;;;8.33;4.57;;;6.70;99.90;;;;;;4223539;28;20461;-81
2023/10/17 09:01:20;;;;;;;9.07;4.20;;;6.70;99.90;;;;;;4224051;27;20478;-81
2023/10/17 09:03:28;;;;;;;8.00;4.10;;;6.80;99.90;;;;;;4227197;27;20439;-81
2023/10/17 09:05:30;;;;;;;6.77;3.97;;;6.80;99.90;;;;;;4229813;28;20464;-80
2023/10/17 09:07:41;;;;;;;10.30;4.10;;;6.90;99.90;;;;;;4227673;28;20447;-81
2023/10/17 09:09:43;;;;;;;9.30;4.40;;;6.90;99.90;;;;;;4223531;28;20901;-80
2023/10/17 09:12:19;;;;;;;6.07;3.93;;;7.00;99.90;;;;;;4223324;28;20233;-81
2023/10/17 09:14:25;;;;;;;8.87;4.50;;;7.00;99.90;;;;;;4228899;28;20964;-81
2023/10/17 09:16:34;;;;;;;9.50;4.70;;;7.10;99.90;;;;;;4226828;28;20316;-80
2023/10/17 09:18:42;;;;;;;8.20;3.77;;;7.20;99.90;;;;;;4223461;28;20611;-81
2023/10/17 09:20:48;;;;;;;6.63;3.70;;;7.20;99.90;;;;;;4226004;28;20236;-81
2023/10/17 09:22:51;;;;;;;5.60;3.33;;;7.30;99.90;;;;;;4228238;28;20229;-81
2023/10/17 09:24:56;;;;;;;8.13;3.77;;;7.40;99.90;;;;;;4223854;28;20208;-81
2023/10/17 09:26:58;;;;;;;8.03;4.13;;;7.50;99.90;;;;;;4230630;28;20287;-80
2023/10/17 09:29:01;;;;;;;8.87;3.73;;;7.60;99.90;;;;;;4221608;28;20216;-80
2023/10/17 09:31:06;;;;;;;4.93;3.43;;;7.60;99.90;;;;;;4224314;28;20220;-81
2023/10/17 09:33:27;;;;;;;5.47;3.20;;;7.70;99.90;;;;;;4228443;28;20304;-81
2023/10/17 09:35:29;;;;;;;4.67;3.17;;;7.80;99.90;;;;;;4231152;28;20273;-81
2023/10/17 09:37:32;;;;;;;5.43;3.33;;;7.80;99.90;;;;;;4231305;28;20847;-79
2023/10/17 09:39:39;;;;;;;4.97;3.23;;;7.90;99.90;;;;;;4234089;28;20197;-81
2023/10/17 09:41:41;;;;;;;5.23;2.97;;;7.90;99.90;;;;;;4230799;27;20680;-81
2023/10/17 09:43:43;;;;;;;6.50;2.83;;;8.10;99.90;;;;;;4230615;28;20220;-81
2023/10/17 09:45:47;;;;;;;9.17;2.73;;;8.10;99.90;;;;;;4228063;28;20264;-80
2023/10/17 09:47:54;;;;;;;3.47;2.40;;;8.20;99.90;;;;;;4233306;27;20205;-81
2023/10/17 09:50:00;;;;;;;3.87;2.63;;;8.20;99.90;;;;;;4235346;27;20234;-80
2023/10/17 09:52:04;;;;;;;4.67;2.57;;;8.30;99.90;;;;;;4233263;27;20226;-80
2023/10/17 09:54:08;;;;;;;5.57;2.67;;;8.40;99.90;;;;;;4232791;28;20280;-80
2023/10/17 09:56:17;;;;;;;5.63;2.80;;;8.50;99.90;;;;;;4236235;27;20205;-80
2023/10/17 09:58:23;;;;;;;6.20;3.03;;;8.80;99.90;;;;;;4238586;27;20228;-80
2023/10/17 10:00:36;;;;;;;9.70;3.20;;;8.60;99.90;;;;;;4231716;27;20840;-81
2023/10/17 10:02:38;;;;;;;6.00;3.20;;;8.70;99.90;;;;;;4234051;27;20221;-80
2023/10/17 10:04:40;;;;;;;8.47;3.57;;;8.80;99.90;;;;;;4228474;27;20206;-81
2023/10/17 10:06:42;;;;;;;4.60;3.17;;;8.80;99.90;;;;;;4229893;28;20198;-80
2023/10/17 10:08:43;;;;;;;5.43;2.70;;;8.90;99.90;;;;;;4228448;27;20565;-81
2023/10/17 10:10:56;;;;;;;10.20;2.67;;;9.00;99.90;;;;;;4231266;27;20209;-81
2023/10/17 10:12:59;;;;;;;4.93;2.40;;;9.10;99.90;;;;;;4232419;28;20681;-81
2023/10/17 10:15:01;;;;;;;4.90;2.77;;;9.20;99.90;;;;;;4230242;28;20220;-80
2023/10/17 10:17:03;;;;;;;4.50;2.40;;;9.30;99.90;;;;;;4235583;28;20611;-81
2023/10/17 10:19:06;;;;;;;4.00;2.10;;;9.40;99.90;;;;;;4233528;27;20219;-82
2023/10/17 10:21:07;;;;;;;3.97;2.20;;;9.50;99.90;;;;;;4229658;28;20915;-81
2023/10/17 10:23:10;;;;;;;2.57;1.80;;;9.60;99.90;;;;;;4234013;28;20232;-80
2023/10/17 10:25:12;;;;;;;4.17;1.70;;;9.70;99.90;;;;;;4233105;28;20251;-81
2023/10/17 10:27:24;;;;;;;4.57;1.70;;;9.80;99.90;;;;;;4233394;28;20189;-81
2023/10/17 10:29:27;;;;;;;3.60;1.67;;;9.80;99.90;;;;;;4232811;27;20716;-81
2023/10/17 10:31:38;;;;;;;3.27;1.43;;;9.90;99.90;;;;;;4234809;27;20232;-81
2023/10/17 10:33:40;;;;;;;4.37;1.83;;;10.00;99.90;;;;;;4233399;27;20200;-81
2023/10/17 10:35:45;;;;;;;4.67;2.20;;;10.10;99.90;;;;;;4230330;28;20231;-81
2023/10/17 10:37:52;;;;;;;6.63;2.10;;;10.20;99.90;;;;;;4232067;28;20318;-81
2023/10/17 10:40:10;;;;;;;5.23;2.53;;;10.30;99.90;;;;;;4237779;27;20268;-81
2023/10/17 10:42:12;;;;;;;8.30;1.97;;;10.40;99.90;;;;;;4232829;28;20223;-81
2023/10/17 10:44:14;;;;;;;3.80;2.10;;;10.60;99.90;;;;;;4233388;28;20784;-82
2023/10/17 10:46:18;;;;;;;2.87;1.97;;;10.70;99.90;;;;;;4234080;27;20211;-81
2023/10/17 10:48:21;;;;;;;5.07;2.10;;;10.90;99.90;;;;;;4232919;28;20246;-81
2023/10/17 10:50:23;;;;;;;5.00;2.00;;;10.90;99.90;;;;;;4232170;28;20661;-81
2023/10/17 10:52:25;;;;;;;3.57;1.80;;;11.10;99.90;;;;;;4231649;27;20251;-78
2023/10/17 10:54:54;;;;;;;2.17;1.53;;;11.20;99.90;;;;;;4231471;27;20250;-79
2023/10/17 10:56:56;;;;;;;5.00;1.60;;;11.30;99.90;;;;;;4232624;27;20704;-79
2023/10/17 10:58:58;;;;;;;3.90;1.80;;;11.50;99.90;;;;;;4231481;27;20602;-79
2023/10/17 11:01:02;;;;;;;3.57;1.60;;;11.70;99.90;;;;;;4233337;27;20208;-78
2023/10/17 11:03:06;;;;;;;4.73;1.80;;;11.80;99.90;;;;;;4229815;27;20838;-79
2023/10/17 11:05:13;;;;;;;5.63;2.00;;;12.00;99.90;;;;;;4231717;28;20209;-79
2023/10/17 11:07:21;;;;;;;4.50;2.07;;;12.20;99.90;;;;;;4232070;27;20264;-81
2023/10/17 11:09:24;;;;;;;6.90;1.93;;;12.30;99.90;;;;;;4231185;27;20257;-81
2023/10/17 11:11:25;;;;;;;3.33;1.57;;;12.30;99.90;;;;;;4232261;27;20699;-82
2023/10/17 11:13:32;;;;;;;2.10;1.17;;;12.40;99.90;;;;;;4231457;27;20648;-81
2023/10/17 11:15:35;;;;;;;2.80;1.30;;;12.40;99.90;;;;;;4234458;28;20211;-81
2023/10/17 11:17:41;;;;;;;4.97;1.80;;;12.70;99.90;;;;;;4231295;27;20215;-81
2023/10/17 11:19:44;;;;;;;4.27;1.70;;;12.60;99.90;;;;;;4234310;28;20205;-82
2023/10/17 11:21:55;;;;;;;2.90;1.57;;;12.80;99.90;;;;;;4227245;27;20221;-82
2023/10/17 11:24:02;;;;;;;3.63;1.50;;;12.90;99.90;;;;;;4227797;27;20205;-82
2023/10/17 11:26:07;;;;;;;2.73;1.50;;;13.10;99.90;;;;;;4226753;27;20233;-81
2023/10/17 11:28:09;;;;;;;3.50;1.43;;;13.30;99.90;;;;;;4224760;28;20231;-82
2023/10/17 11:30:18;;;;;;;4.37;1.60;;;13.40;99.90;;;;;;4229280;27;20450;-82
2023/10/17 11:32:21;;;;;;;5.00;1.30;;;13.60;99.90;;;;;;4229448;28;20225;-82
2023/10/17 11:34:32;;;;;;;4.47;1.60;;;13.80;99.90;;;;;;4229261;28;20219;-81
2023/10/17 11:36:46;;;;;;;2.23;1.30;;;14.00;99.90;;;;;;4229310;28;20562;-81
2023/10/17 11:38:54;;;;;;;3.43;1.43;;;14.20;99.90;;;;;;4225639;27;20222;-81
2023/10/17 11:41:00;;;;;;;2.63;1.40;;;14.30;99.90;;;;;;4228426;27;20208;-81
2023/10/17 11:43:16;;;;;;;2.67;1.37;;;14.50;99.90;;;;;;4249672;27;20207;-81
2023/10/17 11:45:28;;;;;;;3.90;1.20;;;14.80;99.90;;;;;;4237737;28;20216;-82
2023/10/17 11:47:37;;;;;;;3.27;1.20;;;15.20;99.90;;;;;;4233045;28;20201;-81
2023/10/17 11:49:41;;;;;;;2.13;0.93;;;15.80;99.20;;;;;;4237476;27;20268;-81
2023/10/17 11:51:48;;;;;;;2.40;1.20;;;16.30;94.50;;;;;;4233272;28;20214;-78
2023/10/17 11:54:05;;;;;;;2.20;1.10;;;16.50;99.90;;;;;;4236336;28;20265;-82
2023/10/17 11:56:10;;;;;;;1.53;0.93;;;16.60;77.90;;;;;;4236138;28;20216;-82
2023/10/17 11:58:21;;;;;;;2.93;1.20;;;16.60;72.90;;;;;;4231912;27;20228;-82
2023/10/17 12:00:29;;;;;;;1.73;1.10;;;16.50;74.90;;;;;;4223084;28;20696;-78
2023/10/17 12:02:31;;;;;;;1.47;1.00;;;16.70;80.60;;;;;;4232412;28;20253;-79
2023/10/17 12:04:33;;;;;;;2.37;1.17;;;17.10;77.00;;;;;;4230021;28;20766;-79
2023/10/17 12:06:40;;;;;;;3.57;1.17;;;17.60;73.10;;;;;;4236531;27;20269;-79
2023/10/17 12:08:43;;;;;;;2.73;1.20;;;18.00;64.00;;;;;;4226903;28;20294;-79
2023/10/17 12:10:45;;;;;;;3.00;0.90;;;18.20;58.10;;;;;;4230390;27;20209;-79
2023/10/17 12:12:47;;;;;;;2.27;1.00;;;18.50;54.40;;;;;;4233568;28;20204;-79
2023/10/17 12:14:51;;;;;;;1.90;1.00;;;18.80;53.60;;;;;;4227216;28;20204;-79
2023/10/17 12:16:54;;;;;;;2.27;1.00;;;19.00;50.40;;;;;;4228019;28;20617;-79
2023/10/17 12:18:56;;;;;;;3.53;1.00;;;19.30;48.40;;;;;;4225128;28;20211;-79
2023/10/17 12:21:01;;;;;;;1.37;0.93;;;19.60;46.60;;;;;;4221995;28;20759;-78
2023/10/17 12:23:03;;;;;;;2.10;1.20;;;19.90;49.70;;;;;;4225059;28;20307;-80